Time,TemperatureF,DewpointF,PressureIn,WindDirection,WindDirectionDegrees,WindSpeedMPH,WindSpeedGustMPH,Humidity,HourlyPrecipIn,Conditions,Clouds,dailyrainin,SoftwareType,DateUTC
2013-02-28 00:01:00,41.0,29.0,29.65,West,266,0.0,1.0,62,0.00,,,0.15,,2013-02-28 05:01:00,
2013-02-28 00:11:00,41.0,29.0,29.65,West,266,0.0,1.0,62,0.00,,,0.15,,2013-02-28 05:11:00,
2013-02-28 00:22:00,41.0,29.0,29.65,WSW,251,0.0,1.0,63,0.00,,,0.14,,2013-02-28 05:22:00,
2013-02-28 00:32:00,41.0,30.0,29.65,South,176,0.0,0.0,64,0.00,,,0.14,,2013-02-28 05:32:00,
2013-02-28 00:42:00,41.0,30.0,29.65,South,176,0.0,0.0,64,0.00,,,0.14,,2013-02-28 05:42:00,
2013-02-28 00:52:00,41.0,29.0,29.65,North,0,0.0,0.0,63,0.00,,,0.14,,2013-02-28 05:52:00,
2013-02-28 01:01:00,39.0,31.0,29.65,WNW,297,0.0,0.0,73,0.00,,,0.14,,2013-02-28 06:01:00,
2013-02-28 01:11:00,39.0,31.0,29.65,WNW,297,0.0,0.0,73,0.00,,,0.14,,2013-02-28 06:11:00,
2013-02-28 01:22:00,40.0,31.0,29.64,SE,131,0.0,1.0,70,0.00,,,0.14,,2013-02-28 06:22:00,
2013-02-28 01:32:00,41.0,31.0,29.64,North,0,0.0,0.0,67,0.00,,,0.13,,2013-02-28 06:32:00,
2013-02-28 01:42:00,41.0,31.0,29.64,North,0,0.0,0.0,67,0.00,,,0.13,,2013-02-28 06:42:00,
2013-02-28 01:52:00,40.0,31.0,29.64,NE,38,0.0,1.0,70,0.00,,,0.13,,2013-02-28 06:52:00,
2013-02-28 02:01:00,38.0,31.0,29.64,SSE,156,0.0,1.0,75,0.00,,,0.12,,2013-02-28 07:01:00,
2013-02-28 02:11:00,38.0,31.0,29.64,SSE,156,0.0,1.0,75,0.00,,,0.12,,2013-02-28 07:11:00,
2013-02-28 02:21:00,38.0,31.0,29.64,SE,144,1.0,1.0,75,0.00,,,0.11,,2013-02-28 07:21:00,
2013-02-28 02:32:00,40.0,31.0,29.64,ESE,116,0.0,0.0,69,0.00,,,0.11,,2013-02-28 07:32:00,
2013-02-28 02:42:00,40.0,31.0,29.64,ESE,116,0.0,0.0,69,0.00,,,0.11,,2013-02-28 07:42:00,
2013-02-28 02:51:00,39.0,30.0,29.64,South,177,0.0,1.0,71,0.00,,,0.10,,2013-02-28 07:51:00,
2013-02-28 03:01:00,40.0,31.0,29.64,NW,308,0.0,0.0,69,0.00,,,0.10,,2013-02-28 08:01:00,
2013-02-28 03:11:00,40.0,31.0,29.64,NW,308,0.0,0.0,69,0.00,,,0.10,,2013-02-28 08:11:00,
2013-02-28 03:22:00,41.0,31.0,29.64,West,275,1.0,2.0,66,0.00,,,0.10,,2013-02-28 08:22:00,
2013-02-28 03:32:00,41.0,30.0,29.64,NW,317,1.0,2.0,64,0.00,,,0.09,,2013-02-28 08:32:00,
2013-02-28 03:42:00,41.0,30.0,29.64,NW,317,1.0,2.0,64,0.00,,,0.09,,2013-02-28 08:42:00,
2013-02-28 03:53:00,41.0,30.0,29.63,NNW,330,1.0,3.0,65,0.00,,,0.09,,2013-02-28 08:53:00,
2013-02-28 04:03:00,40.0,31.0,29.63,NNW,342,0.0,0.0,69,0.00,,,0.08,,2013-02-28 09:03:00,
2013-02-28 04:12:00,40.0,31.0,29.63,NNW,342,0.0,0.0,69,0.00,,,0.08,,2013-02-28 09:12:00,
2013-02-28 04:22:00,40.0,31.0,29.62,West,280,0.0,0.0,71,0.00,,,0.08,,2013-02-28 09:22:00,
2013-02-28 04:32:00,40.0,32.0,29.63,WNW,286,1.0,2.0,73,0.00,,,0.08,,2013-02-28 09:32:00,
2013-02-28 04:42:00,40.0,32.0,29.63,WNW,286,1.0,2.0,73,0.00,,,0.08,,2013-02-28 09:42:00,
2013-02-28 04:52:00,40.0,32.0,29.64,WNW,301,0.0,1.0,74,0.00,,,0.08,,2013-02-28 09:52:00,
2013-02-28 05:02:00,40.0,31.0,29.64,WNW,298,1.0,2.0,71,0.00,,,0.08,,2013-02-28 10:02:00,
2013-02-28 05:11:00,40.0,32.0,29.64,WNW,291,1.0,2.0,73,0.00,,,0.08,,2013-02-28 10:11:00,
2013-02-28 05:22:00,40.0,32.0,29.64,WNW,291,1.0,2.0,73,0.00,,,0.08,,2013-02-28 10:22:00,
2013-02-28 05:32:00,40.0,32.0,29.64,West,276,2.0,2.0,73,0.00,,,0.08,,2013-02-28 10:32:00,
2013-02-28 05:42:00,40.0,32.0,29.64,West,276,2.0,2.0,73,0.00,,,0.08,,2013-02-28 10:42:00,
2013-02-28 05:52:00,40.0,32.0,29.64,WNW,285,2.0,3.0,73,0.00,,,0.07,,2013-02-28 10:52:00,
2013-02-28 06:02:00,40.0,32.0,29.64,WNW,283,3.0,4.0,73,0.00,,,0.07,,2013-02-28 11:02:00,
2013-02-28 06:11:00,40.0,32.0,29.64,WNW,283,3.0,4.0,73,0.00,,,0.07,,2013-02-28 11:11:00,
2013-02-28 06:22:00,40.0,32.0,29.64,WNW,284,3.0,5.0,73,0.00,,,0.07,,2013-02-28 11:22:00,
2013-02-28 06:32:00,39.0,31.0,29.64,WNW,300,2.0,4.0,73,0.00,,,0.06,,2013-02-28 11:32:00,
2013-02-28 06:42:00,39.0,31.0,29.64,WNW,300,2.0,4.0,73,0.00,,,0.06,,2013-02-28 11:42:00,
2013-02-28 06:52:00,39.0,31.0,29.64,WNW,301,2.0,3.0,72,0.00,,,0.06,,2013-02-28 11:52:00,
2013-02-28 07:02:00,39.0,31.0,29.64,West,270,3.0,4.0,72,0.00,,,0.06,,2013-02-28 12:02:00,
2013-02-28 07:11:00,39.0,31.0,29.64,West,270,3.0,4.0,72,0.00,,,0.06,,2013-02-28 12:11:00,
2013-02-28 07:22:00,39.0,30.0,29.64,WNW,285,1.0,2.0,71,0.00,,,0.06,,2013-02-28 12:22:00,
2013-02-28 07:32:00,39.0,31.0,29.65,West,271,2.0,3.0,72,0.00,,,0.06,,2013-02-28 12:32:00,
2013-02-28 07:42:00,39.0,31.0,29.65,West,271,2.0,3.0,72,0.00,,,0.06,,2013-02-28 12:42:00,
2013-02-28 07:52:00,38.0,30.0,29.65,WNW,299,2.0,3.0,72,0.00,,,0.06,,2013-02-28 12:52:00,
2013-02-28 08:02:00,38.0,30.0,29.65,WNW,286,1.0,3.0,72,0.00,,,0.05,,2013-02-28 13:02:00,
2013-02-28 08:11:00,39.0,30.0,29.66,WNW,289,1.0,2.0,70,0.00,,,0.05,,2013-02-28 13:11:00,
2013-02-28 08:22:00,39.0,30.0,29.66,WNW,289,1.0,2.0,70,0.00,,,0.05,,2013-02-28 13:22:00,
2013-02-28 08:32:00,39.0,30.0,29.66,WNW,295,1.0,3.0,70,0.00,,,0.05,,2013-02-28 13:32:00,
2013-02-28 08:42:00,39.0,30.0,29.66,WNW,295,1.0,3.0,70,0.00,,,0.05,,2013-02-28 13:42:00,
2013-02-28 08:52:00,39.0,29.0,29.66,WNW,287,1.0,2.0,68,0.00,,,0.05,,2013-02-28 13:52:00,
2013-02-28 09:01:00,40.0,30.0,29.66,WNW,295,3.0,6.0,68,0.00,,,0.05,,2013-02-28 14:01:00,
2013-02-28 09:11:00,40.0,29.0,29.66,WNW,300,3.0,6.0,64,0.00,,,0.04,,2013-02-28 14:11:00,
2013-02-28 09:22:00,40.0,29.0,29.66,WNW,300,3.0,6.0,64,0.00,,,0.04,,2013-02-28 14:22:00,
2013-02-28 09:32:00,41.0,30.0,29.66,West,275,5.0,8.0,64,0.00,,,0.03,,2013-02-28 14:32:00,
2013-02-28 09:42:00,41.0,29.0,29.66,WNW,297,3.0,6.0,62,0.00,,,0.01,,2013-02-28 14:42:00,
2013-02-28 09:52:00,41.0,29.0,29.66,WNW,297,3.0,6.0,62,0.00,,,0.01,,2013-02-28 14:52:00,
2013-02-28 10:02:00,42.0,28.0,29.65,WNW,293,4.0,7.0,57,0.00,,,0.01,,2013-02-28 15:02:00,
2013-02-28 10:11:00,42.0,27.0,29.65,West,271,6.0,8.0,56,0.00,,,0.00,,2013-02-28 15:11:00,
2013-02-28 10:22:00,42.0,27.0,29.65,West,271,6.0,8.0,56,0.00,,,0.00,,2013-02-28 15:22:00,
2013-02-28 10:32:00,43.0,27.0,29.65,West,275,7.0,9.0,53,0.00,,,0.00,,2013-02-28 15:32:00,
2013-02-28 10:42:00,43.0,27.0,29.65,West,275,7.0,9.0,53,0.00,,,0.00,,2013-02-28 15:42:00,
2013-02-28 10:52:00,43.0,27.0,29.65,WNW,287,6.0,9.0,53,0.00,,,0.00,,2013-02-28 15:52:00,
2013-02-28 11:02:00,43.0,27.0,29.65,WNW,287,6.0,9.0,53,0.00,,,0.00,,2013-02-28 16:02:00,
2013-02-28 11:12:00,43.0,27.0,29.63,WNW,303,2.0,5.0,53,0.00,,,0.00,,2013-02-28 16:12:00,
2013-02-28 11:22:00,43.0,27.0,29.63,WNW,303,2.0,5.0,53,0.00,,,0.00,,2013-02-28 16:22:00,
2013-02-28 11:32:00,42.0,25.0,29.63,North,349,3.0,5.0,51,0.00,,,0.00,,2013-02-28 16:32:00,
2013-02-28 11:42:00,42.0,25.0,29.63,North,349,3.0,5.0,51,0.00,,,0.00,,2013-02-28 16:42:00,
2013-02-28 11:52:00,43.0,26.0,29.63,NW,316,2.0,6.0,50,0.00,,,0.00,,2013-02-28 16:52:00,
2013-02-28 12:02:00,43.0,26.0,29.63,NW,316,2.0,6.0,50,0.00,,,0.00,,2013-02-28 17:02:00,
2013-02-28 12:12:00,43.0,26.0,29.63,NW,316,2.0,6.0,50,0.00,,,0.00,,2013-02-28 17:12:00,
2013-02-28 12:22:00,43.0,26.0,29.63,NW,316,2.0,6.0,50,0.00,,,0.00,,2013-02-28 17:22:00,
2013-02-28 12:32:00,44.0,22.0,29.62,West,281,5.0,7.0,42,0.00,,,0.00,,2013-02-28 17:32:00,
2013-02-28 12:42:00,44.0,22.0,29.62,West,281,5.0,7.0,42,0.00,,,0.00,,2013-02-28 17:42:00,
2013-02-28 12:53:00,45.0,22.0,29.61,WNW,297,6.0,10.0,39,0.00,,,0.00,,2013-02-28 17:53:00,
2013-02-28 13:02:00,43.0,20.0,29.61,WNW,283,6.0,8.0,40,0.00,,,0.00,,2013-02-28 18:02:00,
2013-02-28 13:12:00,43.0,21.0,29.62,NW,312,4.0,8.0,41,0.00,,,0.00,,2013-02-28 18:12:00,
2013-02-28 13:22:00,43.0,21.0,29.62,NW,312,4.0,8.0,41,0.00,,,0.00,,2013-02-28 18:22:00,
2013-02-28 13:32:00,43.0,22.0,29.61,NW,305,4.0,7.0,42,0.00,,,0.00,,2013-02-28 18:32:00,
2013-02-28 13:42:00,43.0,22.0,29.62,WNW,286,4.0,9.0,42,0.00,,,0.00,,2013-02-28 18:42:00,
2013-02-28 13:52:00,43.0,22.0,29.62,WNW,286,4.0,9.0,42,0.00,,,0.00,,2013-02-28 18:52:00,
2013-02-28 14:02:00,43.0,22.0,29.62,WNW,286,4.0,9.0,42,0.00,,,0.00,,2013-02-28 19:02:00,
2013-02-28 14:11:00,43.0,23.0,29.61,WNW,286,6.0,10.0,44,0.00,,,0.00,,2013-02-28 19:11:00,
2013-02-28 14:22:00,43.0,23.0,29.61,WNW,286,6.0,10.0,44,0.00,,,0.00,,2013-02-28 19:22:00,
2013-02-28 14:32:00,43.0,23.0,29.61,WNW,286,6.0,10.0,44,0.00,,,0.00,,2013-02-28 19:32:00,
2013-02-28 14:42:00,43.0,23.0,29.61,WNW,286,6.0,10.0,44,0.00,,,0.00,,2013-02-28 19:42:00,
2013-02-28 14:52:00,43.0,23.0,29.61,WNW,286,6.0,10.0,44,0.00,,,0.00,,2013-02-28 19:52:00,
2013-02-28 15:01:00,42.0,23.0,29.61,WNW,289,4.0,6.0,47,0.00,,,0.00,,2013-02-28 20:01:00,
2013-02-28 15:12:00,42.0,23.0,29.61,WNW,289,4.0,6.0,47,0.00,,,0.00,,2013-02-28 20:12:00,
2013-02-28 15:22:00,43.0,24.0,29.61,West,278,5.0,7.0,46,0.00,,,0.00,,2013-02-28 20:22:00,
2013-02-28 15:32:00,43.0,24.0,29.61,West,278,5.0,7.0,46,0.00,,,0.00,,2013-02-28 20:32:00,
2013-02-28 15:42:00,43.0,24.0,29.61,West,278,5.0,7.0,46,0.00,,,0.00,,2013-02-28 20:42:00,
2013-02-28 15:52:00,44.0,24.0,29.60,WNW,303,5.0,10.0,45,0.00,,,0.00,,2013-02-28 20:52:00,
2013-02-28 16:02:00,43.0,23.0,29.60,WNW,296,7.0,10.0,44,0.00,,,0.00,,2013-02-28 21:02:00,
2013-02-28 16:11:00,43.0,23.0,29.60,WNW,296,7.0,10.0,44,0.00,,,0.00,,2013-02-28 21:11:00,
2013-02-28 16:22:00,42.0,25.0,29.61,WNW,282,7.0,10.0,50,0.00,,,0.00,,2013-02-28 21:22:00,
2013-02-28 16:32:00,42.0,25.0,29.61,West,281,6.0,8.0,51,0.00,,,0.00,,2013-02-28 21:32:00,
2013-02-28 16:42:00,42.0,25.0,29.61,West,281,6.0,8.0,51,0.00,,,0.00,,2013-02-28 21:42:00,
2013-02-28 16:52:00,42.0,26.0,29.61,WNW,292,7.0,10.0,53,0.00,,,0.00,,2013-02-28 21:52:00,
2013-02-28 17:01:00,41.0,26.0,29.62,WNW,286,7.0,11.0,54,0.00,,,0.00,,2013-02-28 22:01:00,
2013-02-28 17:11:00,40.0,26.0,29.62,WNW,282,6.0,10.0,56,0.00,,,0.00,,2013-02-28 22:11:00,
2013-02-28 17:22:00,40.0,26.0,29.62,WNW,282,6.0,10.0,56,0.00,,,0.00,,2013-02-28 22:22:00,
2013-02-28 17:32:00,40.0,26.0,29.62,WNW,300,5.0,8.0,57,0.00,,,0.00,,2013-02-28 22:32:00,
2013-02-28 17:42:00,40.0,26.0,29.62,WNW,300,5.0,8.0,57,0.00,,,0.00,,2013-02-28 22:42:00,
2013-02-28 17:52:00,40.0,27.0,29.62,WNW,302,3.0,5.0,59,0.00,,,0.00,,2013-02-28 22:52:00,
2013-02-28 18:01:00,40.0,27.0,29.62,NW,306,2.0,4.0,59,0.00,,,0.00,,2013-02-28 23:01:00,
2013-02-28 18:11:00,40.0,27.0,29.62,NW,306,2.0,4.0,59,0.00,,,0.00,,2013-02-28 23:11:00,
2013-02-28 18:22:00,40.0,27.0,29.62,NW,306,2.0,4.0,59,0.00,,,0.00,,2013-02-28 23:22:00,
2013-02-28 18:32:00,40.0,27.0,29.64,NW,305,3.0,4.0,59,0.00,,,0.00,,2013-02-28 23:32:00,
2013-02-28 18:42:00,40.0,27.0,29.64,NW,305,3.0,4.0,59,0.00,,,0.00,,2013-02-28 23:42:00,
2013-02-28 18:52:00,40.0,27.0,29.64,NW,305,3.0,4.0,59,0.00,,,0.00,,2013-02-28 23:52:00,
2013-02-28 19:02:00,39.0,27.0,29.65,WNW,295,4.0,6.0,61,0.00,,,0.00,,2013-03-01 00:02:00,
2013-02-28 19:11:00,39.0,27.0,29.65,WNW,295,4.0,6.0,61,0.00,,,0.00,,2013-03-01 00:11:00,
2013-02-28 19:22:00,39.0,27.0,29.65,WNW,295,3.0,5.0,61,0.00,,,0.00,,2013-03-01 00:22:00,
2013-02-28 19:32:00,39.0,26.0,29.66,WNW,298,4.0,6.0,60,0.00,,,0.00,,2013-03-01 00:32:00,
2013-02-28 19:42:00,39.0,26.0,29.66,WNW,298,4.0,6.0,60,0.00,,,0.00,,2013-03-01 00:42:00,
2013-02-28 19:52:00,39.0,26.0,29.66,WNW,299,4.0,7.0,60,0.00,,,0.00,,2013-03-01 00:52:00,
2013-02-28 20:01:00,39.0,26.0,29.66,WNW,299,4.0,7.0,60,0.00,,,0.00,,2013-03-01 01:01:00,
2013-02-28 20:11:00,39.0,26.0,29.66,WNW,295,4.0,7.0,59,0.00,,,0.00,,2013-03-01 01:11:00,
2013-02-28 20:21:00,39.0,26.0,29.66,WNW,295,4.0,7.0,59,0.00,,,0.00,,2013-03-01 01:21:00,
2013-02-28 20:32:00,39.0,26.0,29.67,WNW,289,6.0,9.0,59,0.00,,,0.00,,2013-03-01 01:32:00,
2013-02-28 20:42:00,39.0,26.0,29.67,WNW,289,6.0,9.0,59,0.00,,,0.00,,2013-03-01 01:42:00,
2013-02-28 20:51:00,38.0,26.0,29.68,WNW,293,4.0,7.0,62,0.00,,,0.00,,2013-03-01 01:51:00,
2013-02-28 21:01:00,38.0,27.0,29.68,WNW,291,6.0,8.0,63,0.00,,,0.00,,2013-03-01 02:01:00,
2013-02-28 21:11:00,38.0,27.0,29.68,WNW,291,6.0,8.0,63,0.00,,,0.00,,2013-03-01 02:11:00,
2013-02-28 21:21:00,38.0,27.0,29.68,WNW,291,6.0,8.0,63,0.00,,,0.00,,2013-03-01 02:21:00,
2013-02-28 21:32:00,38.0,27.0,29.69,WNW,292,5.0,8.0,64,0.00,,,0.00,,2013-03-01 02:32:00,
2013-02-28 21:42:00,38.0,27.0,29.69,WNW,292,5.0,8.0,64,0.00,,,0.00,,2013-03-01 02:42:00,
2013-02-28 21:52:00,38.0,27.0,29.69,WNW,290,5.0,10.0,65,0.00,,,0.00,,2013-03-01 02:52:00,
2013-02-28 22:02:00,36.0,27.0,29.70,WNW,292,3.0,4.0,70,0.00,,,0.00,,2013-03-01 03:02:00,
2013-02-28 22:11:00,36.0,28.0,29.70,NW,305,1.0,2.0,72,0.00,,,0.00,,2013-03-01 03:11:00,
2013-02-28 22:21:00,36.0,28.0,29.70,NW,305,1.0,2.0,72,0.00,,,0.00,,2013-03-01 03:21:00,
2013-02-28 22:32:00,35.0,28.0,29.70,WNW,296,2.0,4.0,74,0.00,,,0.00,,2013-03-01 03:32:00,
2013-02-28 22:42:00,35.0,28.0,29.70,WNW,296,2.0,4.0,74,0.00,,,0.00,,2013-03-01 03:42:00,
2013-02-28 22:52:00,35.0,28.0,29.70,WNW,294,1.0,1.0,75,0.00,,,0.00,,2013-03-01 03:52:00,
2013-02-28 23:01:00,34.0,27.0,29.70,WSW,249,0.0,0.0,76,0.00,,,0.00,,2013-03-01 04:01:00,
2013-02-28 23:11:00,34.0,27.0,29.70,WSW,249,0.0,0.0,76,0.00,,,0.00,,2013-03-01 04:11:00,
2013-02-28 23:21:00,33.0,27.0,29.70,South,186,0.0,1.0,78,0.00,,,0.00,,2013-03-01 04:21:00,
2013-02-28 23:32:00,32.0,27.0,29.69,SSE,158,0.0,0.0,81,0.00,,,0.00,,2013-03-01 04:32:00,
2013-02-28 23:42:00,32.0,27.0,29.69,SSE,158,0.0,0.0,81,0.00,,,0.00,,2013-03-01 04:42:00,
2013-02-28 23:52:00,31.0,26.0,29.69,North,0,0.0,0.0,82,0.00,,,0.00,,2013-03-01 04:52:00,